Time;durP1;ratioP1;P1;durP2;ratioP2;P2;SDS_P1;SDS_P2;PMS_P1;PMS_P2;Temp;Humidity;BMP_temperature;BMP_pressure;BME280_temperature;BME280_humidity;BME280_pressure;Samples;Min_cycle;Max_cycle;Signal;HPM_P1;HPM_P2
2022/01/26 00:07:51;;;;;;;97.05;71.22;;;0.00;99.90;;;;;;4909915;29;20075;-67
2022/01/26 00:10:16;;;;;;;65.25;52.05;;;-0.10;99.90;;;;;;4910250;29;20047;-68
2022/01/26 00:12:42;;;;;;;77.95;60.33;;;0.00;99.90;;;;;;4910666;29;20056;-68
2022/01/26 00:15:09;;;;;;;88.22;66.95;;;0.10;99.90;;;;;;4911702;29;20103;-68
2022/01/26 00:17:35;;;;;;;87.35;61.15;;;-0.10;99.90;;;;;;4912903;29;20043;-68
2022/01/26 00:38:48;;;;;;;68.68;50.13;;;-0.40;99.90;;;;;;4912168;29;20104;-68
2022/01/26 00:41:22;;;;;;;92.93;75.20;;;-0.30;99.90;;;;;;4912011;29;20029;-68
2022/01/26 00:43:55;;;;;;;120.88;99.45;;;-0.30;99.90;;;;;;4910569;29;20036;-67
2022/01/26 00:46:21;;;;;;;72.22;59.95;;;-0.40;99.90;;;;;;4909473;29;20032;-68
2022/01/26 00:48:47;;;;;;;89.72;72.50;;;-0.40;99.90;;;;;;4909429;29;20088;-68
2022/01/26 00:51:16;;;;;;;74.97;61.45;;;-0.40;99.90;;;;;;4910686;29;20059;-68
2022/01/26 00:53:48;;;;;;;70.05;58.10;;;-0.40;99.90;;;;;;4911661;29;20566;-68
2022/01/26 00:56:16;;;;;;;58.65;47.90;;;-0.50;99.90;;;;;;4913370;29;20044;-68
2022/01/26 00:58:43;;;;;;;57.30;45.92;;;-0.50;99.90;;;;;;4909823;29;20128;-68
2022/01/26 01:01:09;;;;;;;55.47;44.05;;;-0.60;99.90;;;;;;4913463;29;20028;-67
2022/01/26 01:03:40;;;;;;;53.53;43.05;;;-0.60;99.90;;;;;;4949844;28;20027;-68
2022/01/26 01:06:16;;;;;;;49.47;40.10;;;-0.70;99.90;;;;;;4949970;28;20027;-68
2022/01/26 01:08:42;;;;;;;52.75;40.97;;;-0.70;99.90;;;;;;4952489;28;20027;-68
2022/01/26 01:11:09;;;;;;;47.35;38.35;;;-0.50;99.90;;;;;;4951213;29;20035;-68
2022/01/26 01:13:38;;;;;;;45.83;37.60;;;-0.50;99.90;;;;;;4949723;29;20027;-68
2022/01/26 01:16:08;;;;;;;46.85;38.33;;;-0.60;99.90;;;;;;4949533;29;20122;-67
2022/01/26 01:18:44;;;;;;;99.55;78.30;;;-0.70;99.90;;;;;;4949744;29;20503;-68
2022/01/26 01:31:11;;;;;;;115.38;76.97;;;-0.60;99.90;;;;;;4953755;29;20531;-68
2022/01/26 01:33:43;;;;;;;224.75;124.32;;;-0.60;99.90;;;;;;4954289;29;20392;-68
2022/01/26 01:36:10;;;;;;;140.80;88.65;;;-0.50;99.90;;;;;;4953334;29;20038;-68
2022/01/26 01:38:40;;;;;;;109.32;75.43;;;-0.60;99.90;;;;;;4956185;28;20050;-67
2022/01/26 01:41:05;;;;;;;127.53;86.05;;;-0.70;99.90;;;;;;4956284;29;20031;-68
2022/01/26 01:43:31;;;;;;;118.95;82.20;;;-1.00;99.90;;;;;;4953261;29;20030;-68
2022/01/26 01:45:57;;;;;;;122.45;83.65;;;-1.10;99.90;;;;;;4968403;28;20027;-68
2022/01/26 01:48:28;;;;;;;127.10;81.85;;;-1.00;99.90;;;;;;4952891;28;20082;-68
2022/01/26 01:50:57;;;;;;;97.63;61.25;;;-0.80;99.90;;;;;;4954270;28;20035;-68
2022/01/26 01:53:34;;;;;;;100.90;67.78;;;-0.50;99.90;;;;;;4956351;29;20039;-67
2022/01/26 01:56:00;;;;;;;100.45;69.85;;;-0.50;99.90;;;;;;4953999;29;20042;-68
2022/01/26 01:58:28;;;;;;;85.05;59.88;;;-0.50;99.90;;;;;;4952885;28;20043;-68
2022/01/26 02:00:54;;;;;;;94.38;67.18;;;-0.60;99.90;;;;;;4952634;29;20066;-68
2022/01/26 02:03:19;;;;;;;84.07;63.67;;;-0.70;99.90;;;;;;4954158;28;20023;-67
2022/01/26 02:05:45;;;;;;;83.90;61.13;;;-0.60;99.90;;;;;;4955196;28;20540;-68
2022/01/26 02:08:11;;;;;;;66.88;52.05;;;-0.60;99.90;;;;;;4954632;29;20032;-68
2022/01/26 02:10:38;;;;;;;61.17;47.42;;;-0.70;99.90;;;;;;4953018;29;20055;-67
2022/01/26 02:13:16;;;;;;;65.05;47.55;;;-0.70;99.90;;;;;;4954274;29;20031;-67
2022/01/26 02:15:54;;;;;;;53.83;43.17;;;-0.70;99.90;;;;;;4952688;28;20027;-67
2022/01/26 02:55:59;;;;;;;53.33;40.10;;;-1.20;99.90;;;;;;4952062;29;20109;-67
2022/01/26 03:06:29;;;;;;;53.38;43.28;;;-1.30;99.90;;;;;;4951957;29;20463;-68
2022/01/26 03:09:00;;;;;;;47.70;37.55;;;-1.20;99.90;;;;;;4953353;28;20019;-68
2022/01/26 03:11:30;;;;;;;53.40;43.03;;;-1.10;99.90;;;;;;4955282;29;20031;-68
2022/01/26 03:14:06;;;;;;;58.10;46.05;;;-1.10;99.90;;;;;;4951748;29;20074;-68
2022/01/26 03:16:38;;;;;;;53.45;42.33;;;-1.10;99.90;;;;;;4951249;29;20047;-68
2022/01/26 03:21:50;;;;;;;54.63;42.90;;;-1.00;99.90;;;;;;4951744;29;20118;-68
2022/01/26 03:35:30;;;;;;;63.03;46.35;;;-1.30;99.90;;;;;;4913623;29;20063;-68
2022/01/26 03:37:58;;;;;;;54.20;42.50;;;-1.20;99.90;;;;;;4910921;29;20070;-68
2022/01/26 03:40:33;;;;;;;60.95;47.38;;;-1.20;99.90;;;;;;4910787;29;20020;-68
2022/01/26 03:42:59;;;;;;;54.38;44.00;;;-1.10;99.90;;;;;;4910677;29;20047;-68
2022/01/26 03:45:26;;;;;;;53.63;43.45;;;-1.10;99.90;;;;;;4910717;29;20024;-67
2022/01/26 03:47:53;;;;;;;56.88;44.88;;;-1.20;99.90;;;;;;4912426;29;20071;-68
2022/01/26 03:50:19;;;;;;;62.22;50.65;;;-1.30;99.90;;;;;;4913253;29;20631;-68
2022/01/26 03:52:45;;;;;;;55.28;45.08;;;-1.20;99.90;;;;;;4910805;29;20401;-67
2022/01/26 03:55:10;;;;;;;54.63;44.17;;;-1.20;99.90;;;;;;4910463;29;20076;-67
2022/01/26 03:57:36;;;;;;;53.25;40.88;;;-1.30;99.90;;;;;;4910855;29;20051;-68
2022/01/26 04:00:07;;;;;;;49.58;40.40;;;-1.30;99.90;;;;;;4911255;29;20024;-68
2022/01/26 04:02:33;;;;;;;58.47;47.97;;;-1.30;99.90;;;;;;4914174;29;20083;-68
2022/01/26 04:05:01;;;;;;;107.85;88.45;;;-1.40;99.90;;;;;;4910932;29;20123;-68
2022/01/26 04:07:27;;;;;;;105.78;87.20;;;-1.60;99.90;;;;;;4912353;29;20016;-68
2022/01/26 04:09:59;;;;;;;81.85;66.93;;;-1.70;99.90;;;;;;4940225;29;20039;-68
2022/01/26 04:12:25;;;;;;;59.78;47.08;;;-1.60;99.90;;;;;;4950707;29;20404;-68
2022/01/26 04:14:57;;;;;;;57.47;47.05;;;-1.70;99.90;;;;;;4952184;28;20031;-68
2022/01/26 04:17:23;;;;;;;58.20;46.13;;;-1.80;99.90;;;;;;4953446;29;20146;-67
2022/01/26 04:19:54;;;;;;;53.60;42.85;;;-1.80;99.90;;;;;;4950237;28;20114;-68
2022/01/26 04:22:26;;;;;;;59.75;44.33;;;-1.60;99.90;;;;;;4950359;29;20046;-67
2022/01/26 04:24:54;;;;;;;56.70;42.65;;;-1.50;99.90;;;;;;4950180;29;20496;-68
2022/01/26 04:27:33;;;;;;;61.17;46.08;;;-1.20;99.90;;;;;;4949866;29;20140;-68
2022/01/26 04:29:59;;;;;;;61.58;46.60;;;-1.30;99.90;;;;;;4951080;29;20489;-68
2022/01/26 04:32:25;;;;;;;60.25;46.83;;;-1.30;99.90;;;;;;4953952;29;20042;-68
2022/01/26 04:34:50;;;;;;;68.15;49.85;;;-1.40;99.90;;;;;;4950082;28;20038;-68
2022/01/26 04:39:52;;;;;;;83.72;61.45;;;-1.50;99.90;;;;;;4950018;28;20019;-67
2022/01/26 04:42:27;;;;;;;60.88;45.38;;;-1.70;99.90;;;;;;4949820;29;20027;-68
2022/01/26 04:45:00;;;;;;;52.58;41.67;;;-1.80;99.90;;;;;;4951738;28;20032;-67
2022/01/26 04:47:26;;;;;;;49.00;38.10;;;-1.80;99.90;;;;;;4953601;28;20047;-67
2022/01/26 04:49:51;;;;;;;51.58;40.05;;;-1.50;99.90;;;;;;4951607;29;20126;-67
2022/01/26 04:52:17;;;;;;;48.33;37.78;;;-1.60;99.90;;;;;;4949709;28;20039;-67
2022/01/26 04:54:43;;;;;;;50.88;38.15;;;-1.80;99.90;;;;;;4949144;28;20019;-67
2022/01/26 04:57:08;;;;;;;45.72;35.58;;;-1.90;99.90;;;;;;4950013;29;20035;-67
2022/01/26 04:59:34;;;;;;;45.92;36.17;;;-1.90;99.90;;;;;;4953180;29;20035;-67
2022/01/26 05:02:00;;;;;;;43.55;35.35;;;-1.80;99.90;;;;;;4950623;29;20082;-67
2022/01/26 05:04:26;;;;;;;41.05;33.58;;;-2.00;99.90;;;;;;4948520;29;20032;-68
2022/01/26 05:06:51;;;;;;;49.05;35.50;;;-2.00;99.90;;;;;;4949641;29;20027;-68
2022/01/26 05:09:19;;;;;;;37.88;30.77;;;-2.00;99.90;;;;;;4950323;29;20034;-67
2022/01/26 05:11:48;;;;;;;37.45;30.13;;;-1.60;99.90;;;;;;4951917;28;20085;-67
2022/01/26 05:14:13;;;;;;;41.40;32.67;;;-1.40;99.90;;;;;;4951620;29;20027;-68
2022/01/26 05:16:39;;;;;;;51.20;37.90;;;-1.50;99.90;;;;;;4949902;28;20038;-67
2022/01/26 05:19:05;;;;;;;54.25;39.90;;;-1.70;99.90;;;;;;4949568;29;20063;-67
2022/01/26 05:21:31;;;;;;;54.40;39.10;;;-1.90;99.90;;;;;;4949541;28;20035;-67
2022/01/26 05:23:57;;;;;;;47.17;36.33;;;-2.00;99.90;;;;;;4950656;28;20122;-68
2022/01/26 05:26:23;;;;;;;47.22;35.30;;;-2.10;99.90;;;;;;4952394;29;20035;-67
2022/01/26 05:28:49;;;;;;;43.90;34.90;;;-2.00;99.90;;;;;;4951318;28;20090;-68
2022/01/26 05:31:15;;;;;;;47.72;33.95;;;-2.00;99.90;;;;;;4949609;29;20444;-68
2022/01/26 05:33:41;;;;;;;49.00;35.03;;;-2.00;99.90;;;;;;4949473;28;20031;-67
2022/01/26 05:36:07;;;;;;;45.72;34.42;;;-2.10;99.90;;;;;;4949547;29;20027;-68
2022/01/26 05:38:33;;;;;;;41.97;34.83;;;-2.00;99.90;;;;;;4953490;28;20056;-68
2022/01/26 05:41:01;;;;;;;43.30;33.30;;;-1.90;99.90;;;;;;4949314;29;20575;-68
2022/01/26 05:43:29;;;;;;;47.60;35.45;;;-2.00;99.90;;;;;;4949475;28;20063;-67
2022/01/26 05:45:59;;;;;;;47.53;36.67;;;-2.10;99.90;;;;;;4949450;29;20039;-68
2022/01/26 05:48:25;;;;;;;47.72;34.45;;;-2.10;99.90;;;;;;4949314;28;20051;-68
2022/01/26 05:50:53;;;;;;;45.72;35.45;;;-2.10;99.90;;;;;;4950921;29;20038;-68
2022/01/26 05:53:22;;;;;;;46.15;33.20;;;-2.10;99.90;;;;;;4953554;29;20385;-68
2022/01/26 05:55:53;;;;;;;44.88;31.92;;;-2.10;99.90;;;;;;4949173;28;20023;-68
2022/01/26 05:58:19;;;;;;;38.80;29.55;;;-1.80;99.90;;;;;;4948866;29;20054;-67
2022/01/26 06:00:45;;;;;;;45.28;33.25;;;-1.80;99.90;;;;;;4949159;29;20034;-68
2022/01/26 06:03:11;;;;;;;41.28;30.42;;;-1.80;99.90;;;;;;4949911;29;20111;-67
2022/01/26 06:05:37;;;;;;;40.30;31.27;;;-2.00;99.90;;;;;;4953520;28;20027;-67
2022/01/26 06:08:03;;;;;;;42.30;31.60;;;-2.20;99.90;;;;;;4955365;29;20031;-67
2022/01/26 06:10:29;;;;;;;46.30;31.90;;;-2.20;99.90;;;;;;4952610;29;20028;-68
2022/01/26 06:12:55;;;;;;;45.17;32.55;;;-2.30;99.90;;;;;;4952736;29;20378;-67
2022/01/26 06:15:20;;;;;;;44.67;33.53;;;-2.20;99.90;;;;;;4952921;29;20507;-67
2022/01/26 06:17:47;;;;;;;44.65;34.28;;;-2.10;99.90;;;;;;4954938;29;20050;-67
2022/01/26 06:20:13;;;;;;;50.95;35.08;;;-2.20;99.90;;;;;;4954115;29;20039;-67
2022/01/26 06:22:39;;;;;;;45.03;33.67;;;-2.20;99.90;;;;;;4952285;28;20054;-67
2022/01/26 06:25:07;;;;;;;48.67;35.10;;;-2.30;99.90;;;;;;4952772;29;20038;-68
2022/01/26 06:27:37;;;;;;;47.53;35.78;;;-2.30;99.90;;;;;;4952621;28;20027;-68
2022/01/26 06:30:07;;;;;;;49.10;36.20;;;-2.20;99.90;;;;;;4938887;29;20035;-67
2022/01/26 06:32:34;;;;;;;52.67;38.30;;;-2.30;99.90;;;;;;4952494;29;20031;-67
2022/01/26 06:35:01;;;;;;;40.47;33.42;;;-2.20;99.90;;;;;;4952771;29;20046;-67
2022/01/26 06:37:27;;;;;;;56.83;36.95;;;-2.00;99.90;;;;;;4951779;28;20046;-68
2022/01/26 06:39:52;;;;;;;51.38;37.67;;;-1.70;99.90;;;;;;4952274;29;20118;-67
2022/01/26 06:42:24;;;;;;;45.40;34.17;;;-1.90;99.90;;;;;;4952845;28;20027;-67
2022/01/26 06:45:07;;;;;;;48.15;37.40;;;-2.20;99.90;;;;;;4953576;28;20525;-68
2022/01/26 06:47:57;;;;;;;47.45;36.90;;;-2.20;99.90;;;;;;4952393;28;20031;-67
2022/01/26 06:50:23;;;;;;;48.17;36.70;;;-2.40;99.90;;;;;;4954851;29;20035;-68
2022/01/26 06:52:49;;;;;;;51.28;38.40;;;-2.40;99.90;;;;;;4951812;29;20051;-67
2022/01/26 06:55:16;;;;;;;52.67;38.20;;;-2.40;99.90;;;;;;4952167;28;20059;-65
2022/01/26 06:57:42;;;;;;;50.95;39.88;;;-2.50;99.90;;;;;;4951891;29;20106;-68
2022/01/26 07:00:10;;;;;;;51.65;39.75;;;-2.50;99.90;;;;;;4952468;28;20019;-67
2022/01/26 07:02:37;;;;;;;49.95;39.42;;;-2.50;99.90;;;;;;4955241;28;20071;-68
2022/01/26 07:05:04;;;;;;;55.78;36.33;;;-2.50;99.90;;;;;;4952583;29;20015;-68
2022/01/26 07:07:29;;;;;;;50.47;36.92;;;-2.60;99.90;;;;;;4951601;29;20027;-68
2022/01/26 07:09:55;;;;;;;50.90;36.78;;;-2.50;99.90;;;;;;4953271;28;20122;-68
2022/01/26 07:12:21;;;;;;;53.58;36.85;;;-2.50;99.90;;;;;;4951578;29;20464;-68
2022/01/26 07:22:47;;;;;;;49.17;37.25;;;-2.50;99.90;;;;;;4951115;29;20493;-67
2022/01/26 07:25:12;;;;;;;55.03;39.67;;;-2.40;99.90;;;;;;4952636;29;20062;-68
2022/01/26 07:27:38;;;;;;;65.45;45.92;;;-2.40;99.90;;;;;;4951714;29;20432;-68
2022/01/26 07:30:06;;;;;;;60.80;41.85;;;-2.40;99.90;;;;;;4951763;29;20054;-68
2022/01/26 07:32:34;;;;;;;55.35;40.83;;;-2.50;99.90;;;;;;4955318;28;20063;-68
2022/01/26 07:35:00;;;;;;;62.97;42.47;;;-2.50;99.90;;;;;;4953276;29;20031;-69
2022/01/26 07:37:26;;;;;;;53.90;40.20;;;-2.50;99.90;;;;;;4951013;29;20117;-68
2022/01/26 07:42:46;;;;;;;57.47;39.90;;;-2.40;99.90;;;;;;4950511;28;20042;-69
2022/01/26 07:45:12;;;;;;;67.47;43.65;;;-2.40;99.90;;;;;;4951147;29;20032;-69
2022/01/26 07:47:38;;;;;;;60.50;44.08;;;-2.30;99.90;;;;;;4954022;29;20054;-70
2022/01/26 07:50:08;;;;;;;68.50;47.63;;;-2.20;99.90;;;;;;4952055;29;20062;-64
2022/01/26 07:52:39;;;;;;;71.13;47.28;;;-1.90;99.90;;;;;;4950489;28;20038;-71
2022/01/26 07:55:07;;;;;;;62.53;43.80;;;-1.10;99.90;;;;;;4950712;29;20035;-66
2022/01/26 07:57:33;;;;;;;58.08;40.25;;;-0.30;99.90;;;;;;4951069;29;20042;-67
2022/01/26 07:59:59;;;;;;;58.50;38.60;;;0.30;99.90;;;;;;4951915;28;20028;-68
2022/01/26 08:02:25;;;;;;;51.70;38.08;;;0.60;99.90;;;;;;4953796;29;20074;-68
2022/01/26 08:04:50;;;;;;;53.65;37.30;;;1.00;99.90;;;;;;4951797;29;20074;-68
2022/01/26 08:07:16;;;;;;;52.55;37.33;;;1.40;99.90;;;;;;4950405;29;20034;-68
2022/01/26 08:09:44;;;;;;;52.35;35.85;;;1.60;99.90;;;;;;4950270;28;20027;-68
2022/01/26 08:12:12;;;;;;;48.35;36.30;;;2.30;99.90;;;;;;4952145;29;20051;-69
2022/01/26 08:14:38;;;;;;;48.13;35.50;;;2.40;99.90;;;;;;4953375;28;20102;-67
2022/01/26 08:17:07;;;;;;;51.60;36.92;;;2.60;99.90;;;;;;4951327;29;20035;-68
2022/01/26 08:19:33;;;;;;;49.10;35.58;;;3.00;99.90;;;;;;4949929;29;20397;-68
2022/01/26 08:22:01;;;;;;;53.97;36.08;;;3.50;99.90;;;;;;4950202;29;20019;-68
2022/01/26 08:24:30;;;;;;;49.08;35.42;;;3.80;99.90;;;;;;4950358;29;20448;-68
2022/01/26 08:27:00;;;;;;;53.30;37.25;;;3.60;99.90;;;;;;4951554;28;20421;-67
2022/01/26 08:29:39;;;;;;;50.30;36.85;;;4.00;99.90;;;;;;4953688;28;20386;-69
2022/01/26 08:32:05;;;;;;;55.22;41.33;;;4.20;99.90;;;;;;4952634;29;20031;-68
2022/01/26 08:34:31;;;;;;;52.53;40.83;;;4.40;99.90;;;;;;4949724;29;20028;-68
2022/01/26 08:36:57;;;;;;;57.00;41.08;;;4.70;99.90;;;;;;4949812;29;20015;-68
2022/01/26 08:39:23;;;;;;;45.15;32.95;;;4.10;99.90;;;;;;4950597;29;20032;-68
2022/01/26 08:41:48;;;;;;;49.20;34.08;;;4.50;99.90;;;;;;4952133;29;20123;-68
2022/01/26 08:44:15;;;;;;;47.80;34.17;;;4.90;99.90;;;;;;4951806;29;20467;-68
2022/01/26 08:46:40;;;;;;;55.05;37.75;;;5.50;99.90;;;;;;4949800;29;20030;-68
2022/01/26 08:49:07;;;;;;;46.72;33.55;;;5.70;99.90;;;;;;4949514;29;20083;-69
2022/01/26 08:51:32;;;;;;;45.10;31.38;;;5.80;99.90;;;;;;4951656;29;20027;-68
2022/01/26 08:53:58;;;;;;;45.05;30.77;;;6.50;99.90;;;;;;4950620;28;20028;-68
2022/01/26 08:56:26;;;;;;;43.85;29.55;;;6.40;99.90;;;;;;4953536;29;20038;-68
2022/01/26 08:58:53;;;;;;;40.47;28.95;;;7.40;99.90;;;;;;4949508;29;20053;-68
2022/01/26 09:01:19;;;;;;;42.55;29.27;;;7.60;99.90;;;;;;4949962;29;20098;-69
2022/01/26 09:03:45;;;;;;;39.45;28.80;;;7.80;99.90;;;;;;4949494;28;20031;-69
2022/01/26 09:06:12;;;;;;;39.40;28.17;;;8.00;99.90;;;;;;4950097;29;20028;-69
2022/01/26 09:08:41;;;;;;;47.35;30.73;;;7.50;99.90;;;;;;4952652;28;20030;-69
2022/01/26 09:11:10;;;;;;;46.40;36.28;;;7.40;99.90;;;;;;4952883;29;20485;-69
2022/01/26 09:13:36;;;;;;;68.45;52.85;;;8.00;99.90;;;;;;4949485;28;20035;-69
2022/01/26 09:16:08;;;;;;;76.30;62.83;;;7.90;99.90;;;;;;4949608;29;20044;-69
2022/01/26 09:18:47;;;;;;;79.90;60.78;;;9.10;99.90;;;;;;4949715;29;20079;-70
2022/01/26 09:21:13;;;;;;;79.88;61.13;;;8.60;99.90;;;;;;4937710;29;20023;-69
2022/01/26 09:23:38;;;;;;;75.57;56.40;;;8.10;99.90;;;;;;4952422;29;20401;-70
2022/01/26 09:26:04;;;;;;;71.47;53.17;;;8.30;99.90;;;;;;4950985;29;20039;-69
2022/01/26 09:28:30;;;;;;;69.82;55.22;;;9.70;99.90;;;;;;4949493;28;20439;-70
2022/01/26 09:30:56;;;;;;;61.10;48.70;;;9.30;99.90;;;;;;4951187;28;20031;-69
2022/01/26 09:33:22;;;;;;;71.90;56.03;;;9.10;99.90;;;;;;4949368;28;20503;-70
2022/01/26 09:35:48;;;;;;;62.00;50.05;;;9.10;99.90;;;;;;4952253;28;20453;-69
2022/01/26 09:38:14;;;;;;;60.90;46.63;;;9.80;99.90;;;;;;4951354;29;20043;-69
2022/01/26 09:40:40;;;;;;;53.97;39.58;;;9.80;99.90;;;;;;4951281;29;20019;-70
2022/01/26 09:43:06;;;;;;;50.53;38.67;;;10.40;99.90;;;;;;4953108;29;20158;-69
2022/01/26 09:45:35;;;;;;;50.58;39.55;;;12.40;99.90;;;;;;4953459;29;20081;-69
2022/01/26 09:48:04;;;;;;;49.78;38.15;;;12.90;99.80;;;;;;4953820;28;20119;-70
2022/01/26 09:50:32;;;;;;;50.42;38.33;;;13.50;99.20;;;;;;4953181;29;20042;-69
2022/01/26 09:52:58;;;;;;;50.08;38.70;;;15.80;95.90;;;;;;4953004;28;20485;-68
2022/01/26 09:55:25;;;;;;;47.97;38.78;;;16.70;93.70;;;;;;4953081;29;20030;-69
2022/01/26 09:57:58;;;;;;;44.47;37.17;;;15.90;93.60;;;;;;4952877;29;20050;-69
2022/01/26 10:00:27;;;;;;;47.45;37.70;;;16.30;93.30;;;;;;4954023;28;20035;-69
2022/01/26 10:03:04;;;;;;;47.10;36.53;;;15.90;93.30;;;;;;4954855;28;20049;-69
2022/01/26 10:05:45;;;;;;;44.13;36.20;;;16.30;92.80;;;;;;4956842;28;20447;-69
2022/01/26 10:16:55;;;;;;;42.38;33.75;;;17.20;91.80;;;;;;4952633;29;20522;-69
2022/01/26 10:18:56;;;;;;;41.17;32.92;;;17.70;91.60;;;;;;4952252;28;20050;-69
2022/01/26 10:21:23;;;;;;;40.05;33.42;;;18.30;90.40;;;;;;4952685;29;20027;-69
2022/01/26 10:23:49;;;;;;;39.78;33.60;;;18.20;90.30;;;;;;4954670;29;20503;-70
2022/01/26 10:26:18;;;;;;;42.72;33.63;;;16.00;93.40;;;;;;4954493;29;20031;-69
2022/01/26 10:28:45;;;;;;;37.83;31.80;;;17.90;91.40;;;;;;4952060;28;20035;-69
2022/01/26 10:31:26;;;;;;;37.38;31.67;;;18.20;90.70;;;;;;4952370;29;20027;-69
2022/01/26 10:33:53;;;;;;;36.83;31.92;;;18.50;90.80;;;;;;4953730;29;20440;-70
2022/01/26 10:36:18;;;;;;;37.38;32.42;;;18.40;90.50;;;;;;4952336;29;20420;-70
2022/01/26 10:38:56;;;;;;;37.50;33.08;;;18.40;90.20;;;;;;4954373;28;20070;-70
2022/01/26 10:41:22;;;;;;;37.10;30.58;;;17.90;91.70;;;;;;4955206;29;20023;-69
2022/01/26 10:43:50;;;;;;;36.90;31.45;;;18.80;92.00;;;;;;4951736;29;20019;-71
2022/01/26 10:46:34;;;;;;;35.75;31.85;;;18.40;91.40;;;;;;4951906;28;20480;-66
2022/01/26 10:51:59;;;;;;;36.85;31.80;;;17.80;91.20;;;;;;4950618;28;20027;-72
2022/01/26 10:56:53;;;;;;;39.50;32.17;;;18.40;91.00;;;;;;4953340;28;20038;-71
2022/01/26 10:59:20;;;;;;;37.45;31.70;;;19.00;90.20;;;;;;4953955;29;20039;-71
2022/01/26 11:01:45;;;;;;;39.45;33.08;;;19.00;90.60;;;;;;4951679;28;20051;-69
2022/01/26 11:04:11;;;;;;;35.83;30.52;;;17.40;92.30;;;;;;4951596;28;20059;-68
2022/01/26 11:06:40;;;;;;;31.98;28.20;;;18.50;91.70;;;;;;4951513;29;20031;-70
2022/01/26 11:09:11;;;;;;;29.58;26.38;;;17.70;92.20;;;;;;4951873;28;20031;-72
2022/01/26 11:11:40;;;;;;;33.42;28.17;;;18.00;92.10;;;;;;4951599;28;20027;-68
2022/01/26 11:14:21;;;;;;;22.85;19.38;;;16.80;92.50;;;;;;4953520;28;20032;-72
2022/01/26 11:17:00;;;;;;;17.92;15.60;;;16.70;93.60;;;;;;4951423;29;20034;-73
2022/01/26 11:19:25;;;;;;;16.52;14.77;;;15.80;95.60;;;;;;4952258;29;20070;-72
2022/01/26 11:21:51;;;;;;;15.68;12.80;;;15.60;95.60;;;;;;4951138;29;20055;-73
2022/01/26 11:24:23;;;;;;;16.05;13.77;;;13.20;97.10;;;;;;4950458;29;20035;-71
2022/01/26 11:27:01;;;;;;;15.45;12.82;;;12.40;99.10;;;;;;4968586;28;20099;-71
2022/01/26 11:29:32;;;;;;;15.30;12.50;;;13.60;98.60;;;;;;4954464;29;20627;-72
2022/01/26 11:32:10;;;;;;;15.40;12.50;;;13.10;97.40;;;;;;4955241;28;20393;-73
2022/01/26 11:34:37;;;;;;;12.77;11.48;;;13.00;98.20;;;;;;4948645;29;20038;-72
2022/01/26 11:37:07;;;;;;;14.65;12.45;;;13.20;98.40;;;;;;4950935;29;20019;-72
2022/01/26 11:45:18;;;;;;;13.90;10.32;;;12.80;97.70;;;;;;4936982;29;20101;-70
2022/01/26 11:48:10;;;;;;;11.43;10.07;;;12.50;97.90;;;;;;4952873;28;20027;-68
2022/01/26 11:50:47;;;;;;;13.32;10.75;;;12.50;98.20;;;;;;4954058;28;20047;-68
2022/01/26 11:53:16;;;;;;;14.27;10.93;;;12.70;99.10;;;;;;4954494;29;20404;-68
2022/01/26 11:55:46;;;;;;;12.10;8.98;;;13.90;96.90;;;;;;4950879;29;20079;-69
2022/01/26 11:58:18;;;;;;;9.88;8.23;;;12.70;97.00;;;;;;4951703;28;20519;-67
2022/01/26 12:01:11;;;;;;;12.30;8.43;;;12.60;97.90;;;;;;4950730;28;20060;-69
2022/01/26 12:03:44;;;;;;;21.17;14.35;;;13.80;95.40;;;;;;4950344;28;20023;-68
2022/01/26 12:06:19;;;;;;;17.77;13.98;;;13.30;95.40;;;;;;4936487;29;20027;-69
2022/01/26 12:08:45;;;;;;;12.50;8.60;;;12.60;96.80;;;;;;4952935;28;20114;-70
2022/01/26 12:11:15;;;;;;;16.15;12.63;;;13.10;96.30;;;;;;4951837;29;20035;-68
2022/01/26 12:13:43;;;;;;;10.68;9.38;;;12.60;96.90;;;;;;4950318;28;20069;-69
2022/01/26 12:16:18;;;;;;;11.77;10.15;;;13.10;96.70;;;;;;4950507;28;20023;-68
2022/01/26 12:36:20;;;;;;;10.18;7.53;;;12.70;96.50;;;;;;4954028;29;20105;-68
2022/01/26 12:38:41;;;;;;;9.07;7.30;;;12.10;97.40;;;;;;4946557;29;20059;-68
2022/01/26 12:41:18;;;;;;;9.32;7.00;;;13.10;95.90;;;;;;4952564;29;20054;-68
2022/01/26 12:43:55;;;;;;;11.60;8.68;;;12.10;97.00;;;;;;4950281;28;20034;-68
2022/01/26 12:46:22;;;;;;;12.40;9.68;;;12.30;96.30;;;;;;4950092;28;20078;-68
2022/01/26 12:48:50;;;;;;;8.70;7.80;;;12.50;96.70;;;;;;4949956;28;20073;-69
2022/01/26 12:51:17;;;;;;;7.25;6.35;;;12.70;96.50;;;;;;4949908;28;20115;-68
2022/01/26 12:53:43;;;;;;;8.10;6.88;;;12.40;95.40;;;;;;4952570;28;20030;-71
2022/01/26 12:56:13;;;;;;;7.57;6.32;;;12.30;96.60;;;;;;4951355;28;20050;-70
2022/01/26 12:58:41;;;;;;;9.77;6.85;;;12.60;95.80;;;;;;4949502;28;20058;-71
2022/01/26 13:01:09;;;;;;;8.68;6.18;;;12.90;96.00;;;;;;4949717;28;20492;-71
2022/01/26 13:03:40;;;;;;;10.05;6.63;;;13.40;95.30;;;;;;4949673;28;20468;-71
2022/01/26 13:06:12;;;;;;;8.60;6.68;;;12.60;96.10;;;;;;4934755;29;20493;-73
2022/01/26 13:08:52;;;;;;;8.77;6.05;;;12.30;95.60;;;;;;4952645;29;20515;-73
2022/01/26 13:11:32;;;;;;;8.10;6.05;;;12.00;96.10;;;;;;4953762;28;20023;-73
2022/01/26 13:14:19;;;;;;;8.23;5.97;;;12.20;96.00;;;;;;4949599;28;20092;-73
2022/01/26 13:17:35;;;;;;;7.15;5.68;;;12.50;95.80;;;;;;4950913;28;20075;-73
2022/01/26 13:28:28;;;;;;;7.93;5.47;;;12.30;95.70;;;;;;4949517;28;20035;-73
2022/01/26 13:36:37;;;;;;;9.23;7.07;;;12.00;95.90;;;;;;4936569;29;20062;-73
2022/01/26 13:42:06;;;;;;;11.63;7.85;;;12.20;95.10;;;;;;4952295;28;20031;-74
2022/01/26 13:52:26;;;;;;;9.98;6.82;;;12.20;95.20;;;;;;4949088;29;20024;-73
2022/01/26 14:00:07;;;;;;;10.48;7.38;;;12.50;95.60;;;;;;4934685;29;20504;-74
2022/01/26 14:02:35;;;;;;;10.23;7.45;;;12.30;95.60;;;;;;4953840;28;20552;-74
2022/01/26 14:05:01;;;;;;;11.80;8.15;;;12.20;96.00;;;;;;4951054;29;20101;-73
2022/01/26 14:07:27;;;;;;;13.15;8.65;;;12.40;96.00;;;;;;4948901;28;20031;-73
2022/01/26 14:09:53;;;;;;;11.85;7.68;;;12.30;95.60;;;;;;4949129;29;20030;-73
2022/01/26 14:12:24;;;;;;;8.25;6.68;;;12.50;95.20;;;;;;4949652;28;20024;-73
2022/01/26 14:14:53;;;;;;;12.05;7.85;;;12.40;95.70;;;;;;4951553;28;20486;-73
2022/01/26 14:17:29;;;;;;;10.23;7.88;;;12.50;95.70;;;;;;4951500;29;20035;-73
2022/01/26 14:22:34;;;;;;;8.93;7.50;;;12.50;95.60;;;;;;4948703;28;20057;-73
2022/01/26 14:25:15;;;;;;;9.75;7.20;;;12.40;96.00;;;;;;4948938;28;20094;-73
2022/01/26 14:27:47;;;;;;;10.90;7.03;;;12.40;96.00;;;;;;4953357;28;20085;-73
2022/01/26 14:35:48;;;;;;;7.60;6.03;;;12.40;96.00;;;;;;4956553;29;20039;-73
2022/01/26 14:50:56;;;;;;;9.77;7.22;;;12.20;96.00;;;;;;4952433;29;20034;-74
2022/01/26 15:33:17;;;;;;;13.63;8.82;;;12.10;95.90;;;;;;4952252;29;20066;-73
2022/01/26 15:51:13;;;;;;;13.13;8.60;;;11.80;96.90;;;;;;4935247;29;20055;-72
2022/01/26 16:20:42;;;;;;;16.80;12.93;;;11.00;98.90;;;;;;4953165;29;20054;-72
2022/01/26 16:53:41;;;;;;;22.30;15.73;;;9.50;99.90;;;;;;4949890;29;20029;-73
2022/01/26 18:16:51;;;;;;;214.27;88.75;;;4.80;99.90;;;;;;4949737;28;20042;-68
2022/01/26 18:33:14;;;;;;;60.72;30.98;;;4.10;99.90;;;;;;4933460;29;19995;-73
2022/01/26 18:49:13;;;;;;;35.65;26.50;;;3.40;99.90;;;;;;4946525;28;20536;-69
2022/01/26 18:51:44;;;;;;;34.22;25.50;;;3.30;99.90;;;;;;4939853;29;20047;-70
2022/01/26 18:54:12;;;;;;;32.78;24.58;;;3.10;99.90;;;;;;4935698;29;20031;-73
2022/01/26 18:56:41;;;;;;;84.57;70.72;;;3.30;99.90;;;;;;4936952;29;20032;-72
2022/01/26 18:59:07;;;;;;;27.67;21.27;;;3.10;99.90;;;;;;4939624;29;20046;-73
2022/01/26 19:01:34;;;;;;;34.15;26.77;;;2.90;99.90;;;;;;4947409;29;20817;-68
2022/01/26 19:04:00;;;;;;;37.20;26.08;;;2.80;99.90;;;;;;4951249;28;20503;-68
2022/01/26 19:06:26;;;;;;;47.95;35.97;;;2.70;99.90;;;;;;4951971;29;20078;-69
2022/01/26 19:08:52;;;;;;;44.60;33.78;;;2.80;99.90;;;;;;4953135;28;20027;-69
2022/01/26 19:11:20;;;;;;;48.08;35.13;;;2.80;99.90;;;;;;4952118;29;20577;-71
2022/01/26 19:13:47;;;;;;;59.22;44.35;;;2.70;99.90;;;;;;4949744;28;20030;-67
2022/01/26 19:19:29;;;;;;;38.80;30.92;;;2.70;99.90;;;;;;4931334;29;20422;-76
2022/01/26 19:22:12;;;;;;;43.63;32.83;;;2.50;99.90;;;;;;4929697;29;20058;-74
2022/01/26 19:27:18;;;;;;;37.45;27.95;;;2.80;99.90;;;;;;4931989;29;20035;-73
2022/01/26 19:45:56;;;;;;;32.55;26.65;;;3.20;99.90;;;;;;4931438;29;20036;-74
2022/01/26 19:50:54;;;;;;;33.80;29.10;;;3.20;99.90;;;;;;4916119;29;20104;-75
2022/01/26 19:53:21;;;;;;;33.00;29.40;;;3.00;99.90;;;;;;4930341;29;20122;-74
2022/01/26 19:55:46;;;;;;;33.08;27.23;;;2.90;99.90;;;;;;4947710;29;20571;-73
2022/01/26 19:58:13;;;;;;;35.05;28.42;;;3.00;99.90;;;;;;4950090;29;20126;-66
2022/01/26 20:00:43;;;;;;;32.72;28.60;;;3.00;99.90;;;;;;4950412;28;20405;-69